West Rockport, ME (04865)

7:13 AM EDT on September 02, 2015 (GMT -0400)
Wayfarer Marine | | Change Station
CLOSE
Current Station
Personal Weather Station
Location: Camden, ME
Elevation: 15 ft
Nearby Weather Stations

Elev 15 ft 44.21 °N, 69.06 °W | Updated 5 minutes ago

Clear
Clear
64.1 °F
Feels Like 64.1 °F
N
3.0
Wind Variable Wind from West
Gusts 6.0 mph

Today
High -- | Low -- °F
--% Chance of Precip.
Yesterday
High -- | Low -- °F
Precip. -- in
6:00 AM 7:11 PM
Waning Gibbous, 81% visible
Pressure 29.97 in
Visibility 0.2 miles
Clouds Overcast 200 ft
Dew Point 63 °F
Humidity 95%
Rainfall 0.00 in
Snow Depth Not available.
UV 0 out of 12
Pollen 7.50 out of 12
Air Quality Not available.
Flu Activity Not available.
METAR KRKD 021055Z AUTO 27003KT M1/4SM OVC002 16/16 A2997 RMK AO1
Pressure 29.97 in
Visibility 0.2 miles
Clouds Overcast 200 ft
Dew Point 63 °F
Humidity 95%
Rainfall 0.00 in
Snow Depth Not available.
UV 0 out of 12
Pollen 7.50 out of 12
Air Quality Not available.
Flu Activity Not available.
METAR KRKD 021055Z AUTO 27003KT M1/4SM OVC002 16/16 A2997 RMK AO1

10-Day Weather Forecast

×

Almanac

Astronomy

Sep. 02, 2015 Rise Set
Actual Time
Civil Twilight
Nautical Twilight
Astronomical Twilight
Moon
Length of Visible Light
Length of Day
Tomorrow will be .
, % of the Moon is Illuminated

Today's Extremes

State Highs State Lows

Community

WunderPhotos

Upload Photos

1,851,736 photos uploaded!

WunderBlogs® & News

Nearby

Air Quality

  Air Quality AQ Index Pollutant
Not available.

Snow Depth

Station Depth Elevation

Earthquake Activity

City Distance Mag. Time & Date
Minimum magnitude displayed is 2.5.

Coastal Water Temperatures

Place Temperature

Stations

Nearby Weather Stations

Station Location Temp. Windchill Dew Point Humidity Wind Precip. Elev Updated Type